sensor_id;sensor_type;location;lat;lon;timestamp;temperature;humidity
21108;DHT22;10712;52.944;9.098;2022-08-18T00:01:10;19.90;87.50
21108;DHT22;10712;52.944;9.098;2022-08-18T00:03:38;19.90;87.50
21108;DHT22;10712;52.944;9.098;2022-08-18T00:06:06;19.80;87.20
21108;DHT22;10712;52.944;9.098;2022-08-18T00:08:32;19.70;87.60
21108;DHT22;10712;52.944;9.098;2022-08-18T00:10:59;19.70;87.90
21108;DHT22;10712;52.944;9.098;2022-08-18T00:13:25;19.70;88.00
21108;DHT22;10712;52.944;9.098;2022-08-18T00:15:51;19.70;88.10
21108;DHT22;10712;52.944;9.098;2022-08-18T00:18:17;19.70;88.10
21108;DHT22;10712;52.944;9.098;2022-08-18T00:20:44;19.70;88.10
21108;DHT22;10712;52.944;9.098;2022-08-18T00:23:10;19.70;88.00
21108;DHT22;10712;52.944;9.098;2022-08-18T00:25:36;19.70;87.90
21108;DHT22;10712;52.944;9.098;2022-08-18T00:28:03;19.70;87.70
21108;DHT22;10712;52.944;9.098;2022-08-18T00:30:30;19.70;87.60
21108;DHT22;10712;52.944;9.098;2022-08-18T00:32:58;19.60;87.50
21108;DHT22;10712;52.944;9.098;2022-08-18T00:35:32;19.60;87.60
21108;DHT22;10712;52.944;9.098;2022-08-18T00:38:04;19.60;87.60
21108;DHT22;10712;52.944;9.098;2022-08-18T00:40:41;19.60;87.60
21108;DHT22;10712;52.944;9.098;2022-08-18T00:43:15;19.60;87.60
21108;DHT22;10712;52.944;9.098;2022-08-18T00:45:54;19.60;87.50
21108;DHT22;10712;52.944;9.098;2022-08-18T00:48:20;19.60;87.50
21108;DHT22;10712;52.944;9.098;2022-08-18T00:50:53;19.60;87.30
21108;DHT22;10712;52.944;9.098;2022-08-18T00:53:33;19.60;87.30
21108;DHT22;10712;52.944;9.098;2022-08-18T00:56:54;19.50;87.50
21108;DHT22;10712;52.944;9.098;2022-08-18T00:59:36;19.50;87.60
21108;DHT22;10712;52.944;9.098;2022-08-18T01:02:13;19.50;87.60
21108;DHT22;10712;52.944;9.098;2022-08-18T01:07:42;19.40;87.90
21108;DHT22;10712;52.944;9.098;2022-08-18T01:10:12;19.30;88.20
21108;DHT22;10712;52.944;9.098;2022-08-18T01:12:46;19.20;88.70
21108;DHT22;10712;52.944;9.098;2022-08-18T01:15:18;19.30;89.10
21108;DHT22;10712;52.944;9.098;2022-08-18T01:17:46;19.30;89.20
21108;DHT22;10712;52.944;9.098;2022-08-18T01:21:03;19.40;89.10
21108;DHT22;10712;52.944;9.098;2022-08-18T01:23:49;19.40;89.10
21108;DHT22;10712;52.944;9.098;2022-08-18T01:26:17;19.50;89.00
21108;DHT22;10712;52.944;9.098;2022-08-18T01:28:45;19.50;88.90
21108;DHT22;10712;52.944;9.098;2022-08-18T01:31:36;19.40;88.90
21108;DHT22;10712;52.944;9.098;2022-08-18T01:34:08;19.40;89.00
21108;DHT22;10712;52.944;9.098;2022-08-18T01:36:37;19.40;89.00
21108;DHT22;10712;52.944;9.098;2022-08-18T01:39:07;19.40;89.20
21108;DHT22;10712;52.944;9.098;2022-08-18T01:41:35;19.40;89.20
21108;DHT22;10712;52.944;9.098;2022-08-18T01:44:02;19.40;89.20
21108;DHT22;10712;52.944;9.098;2022-08-18T01:46:33;19.40;89.10
21108;DHT22;10712;52.944;9.098;2022-08-18T01:49:00;19.30;89.10
21108;DHT22;10712;52.944;9.098;2022-08-18T01:51:29;19.30;89.20
21108;DHT22;10712;52.944;9.098;2022-08-18T01:53:57;19.30;89.30
21108;DHT22;10712;52.944;9.098;2022-08-18T01:56:25;19.30;89.40
21108;DHT22;10712;52.944;9.098;2022-08-18T01:58:54;19.30;89.60
21108;DHT22;10712;52.944;9.098;2022-08-18T02:01:21;19.30;89.90
21108;DHT22;10712;52.944;9.098;2022-08-18T02:03:51;19.20;90.30
21108;DHT22;10712;52.944;9.098;2022-08-18T02:06:21;19.20;90.40
21108;DHT22;10712;52.944;9.098;2022-08-18T02:08:46;19.20;90.60
21108;DHT22;10712;52.944;9.098;2022-08-18T02:11:13;19.20;90.90
21108;DHT22;10712;52.944;9.098;2022-08-18T02:13:39;19.20;91.10
21108;DHT22;10712;52.944;9.098;2022-08-18T02:16:06;19.20;91.20
21108;DHT22;10712;52.944;9.098;2022-08-18T02:18:34;19.20;91.10
21108;DHT22;10712;52.944;9.098;2022-08-18T02:21:10;19.20;91.10
21108;DHT22;10712;52.944;9.098;2022-08-18T02:23:39;19.20;91.30
21108;DHT22;10712;52.944;9.098;2022-08-18T02:26:09;19.20;91.40
21108;DHT22;10712;52.944;9.098;2022-08-18T02:28:37;19.20;91.50
21108;DHT22;10712;52.944;9.098;2022-08-18T02:31:12;19.20;91.70
21108;DHT22;10712;52.944;9.098;2022-08-18T02:33:41;19.20;91.80
21108;DHT22;10712;52.944;9.098;2022-08-18T02:36:08;19.20;91.70
21108;DHT22;10712;52.944;9.098;2022-08-18T02:38:35;19.20;91.80
21108;DHT22;10712;52.944;9.098;2022-08-18T02:41:03;19.20;91.70
21108;DHT22;10712;52.944;9.098;2022-08-18T02:43:35;19.30;91.50
21108;DHT22;10712;52.944;9.098;2022-08-18T02:46:03;19.30;91.30
21108;DHT22;10712;52.944;9.098;2022-08-18T02:48:31;19.30;91.30
21108;DHT22;10712;52.944;9.098;2022-08-18T02:51:07;19.30;91.20
21108;DHT22;10712;52.944;9.098;2022-08-18T02:53:40;19.30;91.30
21108;DHT22;10712;52.944;9.098;2022-08-18T02:56:20;19.30;91.20
21108;DHT22;10712;52.944;9.098;2022-08-18T02:58:58;19.30;91.30
21108;DHT22;10712;52.944;9.098;2022-08-18T03:01:35;19.30;91.30
21108;DHT22;10712;52.944;9.098;2022-08-18T03:04:04;19.30;91.30
21108;DHT22;10712;52.944;9.098;2022-08-18T03:06:34;19.40;91.20
21108;DHT22;10712;52.944;9.098;2022-08-18T03:09:03;19.40;91.10
21108;DHT22;10712;52.944;9.098;2022-08-18T03:11:30;19.40;90.90
21108;DHT22;10712;52.944;9.098;2022-08-18T03:13:56;19.40;90.90
21108;DHT22;10712;52.944;9.098;2022-08-18T03:16:23;19.40;90.90
21108;DHT22;10712;52.944;9.098;2022-08-18T03:18:50;19.40;91.00
21108;DHT22;10712;52.944;9.098;2022-08-18T03:21:24;19.40;91.20
21108;DHT22;10712;52.944;9.098;2022-08-18T03:23:53;19.40;91.30
21108;DHT22;10712;52.944;9.098;2022-08-18T03:26:21;19.40;91.30
21108;DHT22;10712;52.944;9.098;2022-08-18T03:28:51;19.50;91.20
21108;DHT22;10712;52.944;9.098;2022-08-18T03:31:20;19.50;90.90
21108;DHT22;10712;52.944;9.098;2022-08-18T03:33:48;19.50;90.80
21108;DHT22;10712;52.944;9.098;2022-08-18T03:36:27;19.40;91.00
21108;DHT22;10712;52.944;9.098;2022-08-18T03:38:56;19.40;91.10
21108;DHT22;10712;52.944;9.098;2022-08-18T03:41:24;19.40;91.10
21108;DHT22;10712;52.944;9.098;2022-08-18T03:43:51;19.40;91.10
21108;DHT22;10712;52.944;9.098;2022-08-18T03:46:19;19.40;91.10
21108;DHT22;10712;52.944;9.098;2022-08-18T03:48:47;19.40;91.00
21108;DHT22;10712;52.944;9.098;2022-08-18T03:51:22;19.40;91.10
21108;DHT22;10712;52.944;9.098;2022-08-18T03:53:53;19.50;90.90
21108;DHT22;10712;52.944;9.098;2022-08-18T03:56:26;19.40;90.90
21108;DHT22;10712;52.944;9.098;2022-08-18T03:58:58;19.50;90.90
21108;DHT22;10712;52.944;9.098;2022-08-18T04:01:30;19.50;90.60
21108;DHT22;10712;52.944;9.098;2022-08-18T04:04:00;19.40;90.60
21108;DHT22;10712;52.944;9.098;2022-08-18T04:06:33;19.40;90.60
21108;DHT22;10712;52.944;9.098;2022-08-18T04:09:06;19.50;90.60
21108;DHT22;10712;52.944;9.098;2022-08-18T04:11:37;19.50;90.50
21108;DHT22;10712;52.944;9.098;2022-08-18T04:14:04;19.50;90.50
21108;DHT22;10712;52.944;9.098;2022-08-18T04:16:31;19.50;90.30
21108;DHT22;10712;52.944;9.098;2022-08-18T04:18:59;19.50;90.20
21108;DHT22;10712;52.944;9.098;2022-08-18T04:21:34;19.50;90.10
21108;DHT22;10712;52.944;9.098;2022-08-18T04:24:03;19.50;89.90
21108;DHT22;10712;52.944;9.098;2022-08-18T04:26:36;19.50;89.90
21108;DHT22;10712;52.944;9.098;2022-08-18T04:29:04;19.50;89.90
21108;DHT22;10712;52.944;9.098;2022-08-18T04:31:31;19.50;89.80
21108;DHT22;10712;52.944;9.098;2022-08-18T04:33:58;19.50;89.80
21108;DHT22;10712;52.944;9.098;2022-08-18T04:36:26;19.50;89.80
21108;DHT22;10712;52.944;9.098;2022-08-18T04:38:53;19.50;90.00
21108;DHT22;10712;52.944;9.098;2022-08-18T04:41:20;19.50;90.00
21108;DHT22;10712;52.944;9.098;2022-08-18T04:43:58;19.50;90.20
21108;DHT22;10712;52.944;9.098;2022-08-18T04:46:27;19.50;90.30
21108;DHT22;10712;52.944;9.098;2022-08-18T04:48:54;19.50;90.20
21108;DHT22;10712;52.944;9.098;2022-08-18T04:51:28;19.50;90.30
21108;DHT22;10712;52.944;9.098;2022-08-18T04:53:56;19.50;90.30
21108;DHT22;10712;52.944;9.098;2022-08-18T04:56:33;19.50;90.20
21108;DHT22;10712;52.944;9.098;2022-08-18T05:01:34;19.50;90.20
21108;DHT22;10712;52.944;9.098;2022-08-18T05:04:11;19.50;90.10
21108;DHT22;10712;52.944;9.098;2022-08-18T05:06:39;19.50;90.00
21108;DHT22;10712;52.944;9.098;2022-08-18T05:09:08;19.50;90.10
21108;DHT22;10712;52.944;9.098;2022-08-18T05:11:36;19.50;90.30
21108;DHT22;10712;52.944;9.098;2022-08-18T05:14:06;19.50;90.30
21108;DHT22;10712;52.944;9.098;2022-08-18T05:16:34;19.50;90.30
21108;DHT22;10712;52.944;9.098;2022-08-18T05:19:09;19.50;90.40
21108;DHT22;10712;52.944;9.098;2022-08-18T05:21:39;19.50;90.50
21108;DHT22;10712;52.944;9.098;2022-08-18T05:24:07;19.50;90.40
21108;DHT22;10712;52.944;9.098;2022-08-18T05:26:35;19.50;90.30
21108;DHT22;10712;52.944;9.098;2022-08-18T05:29:01;19.50;90.30
21108;DHT22;10712;52.944;9.098;2022-08-18T05:31:28;19.50;90.30
21108;DHT22;10712;52.944;9.098;2022-08-18T05:33:55;19.50;90.20
21108;DHT22;10712;52.944;9.098;2022-08-18T05:39:37;19.60;90.10
21108;DHT22;10712;52.944;9.098;2022-08-18T05:42:19;19.60;90.10
21108;DHT22;10712;52.944;9.098;2022-08-18T05:44:51;19.60;90.00
21108;DHT22;10712;52.944;9.098;2022-08-18T05:47:28;19.60;89.90
21108;DHT22;10712;52.944;9.098;2022-08-18T05:50:03;19.60;89.90
21108;DHT22;10712;52.944;9.098;2022-08-18T05:55:09;19.60;90.00
21108;DHT22;10712;52.944;9.098;2022-08-18T05:58:07;19.60;90.00
21108;DHT22;10712;52.944;9.098;2022-08-18T06:00:38;19.60;90.30
21108;DHT22;10712;52.944;9.098;2022-08-18T06:03:24;19.60;90.40
21108;DHT22;10712;52.944;9.098;2022-08-18T06:05:59;19.60;90.40
21108;DHT22;10712;52.944;9.098;2022-08-18T06:08:37;19.60;90.50
21108;DHT22;10712;52.944;9.098;2022-08-18T06:11:07;19.70;90.40
21108;DHT22;10712;52.944;9.098;2022-08-18T06:13:42;19.70;90.20
21108;DHT22;10712;52.944;9.098;2022-08-18T06:22:02;19.60;90.30
21108;DHT22;10712;52.944;9.098;2022-08-18T06:25:02;19.60;90.50
21108;DHT22;10712;52.944;9.098;2022-08-18T06:30:46;19.60;90.40
21108;DHT22;10712;52.944;9.098;2022-08-18T06:33:37;19.70;90.30
21108;DHT22;10712;52.944;9.098;2022-08-18T06:36:24;19.70;90.20
21108;DHT22;10712;52.944;9.098;2022-08-18T06:39:25;19.70;90.00
21108;DHT22;10712;52.944;9.098;2022-08-18T06:41:52;19.70;89.80
21108;DHT22;10712;52.944;9.098;2022-08-18T06:44:32;19.70;89.90
21108;DHT22;10712;52.944;9.098;2022-08-18T06:50:23;19.70;89.80
21108;DHT22;10712;52.944;9.098;2022-08-18T06:55:40;19.80;89.40
21108;DHT22;10712;52.944;9.098;2022-08-18T07:01:05;19.80;89.20
21108;DHT22;10712;52.944;9.098;2022-08-18T07:08:51;19.90;89.10
21108;DHT22;10712;52.944;9.098;2022-08-18T07:11:22;19.90;89.00
21108;DHT22;10712;52.944;9.098;2022-08-18T07:14:19;19.90;89.10
21108;DHT22;10712;52.944;9.098;2022-08-18T07:16:47;19.90;89.20
21108;DHT22;10712;52.944;9.098;2022-08-18T07:19:17;19.90;89.10
21108;DHT22;10712;52.944;9.098;2022-08-18T07:24:48;20.00;89.00
21108;DHT22;10712;52.944;9.098;2022-08-18T07:27:45;20.00;89.10
21108;DHT22;10712;52.944;9.098;2022-08-18T07:35:54;20.10;89.30
21108;DHT22;10712;52.944;9.098;2022-08-18T07:38:33;20.20;89.40
21108;DHT22;10712;52.944;9.098;2022-08-18T07:48:48;20.40;89.10
21108;DHT22;10712;52.944;9.098;2022-08-18T07:54:22;20.60;88.90
21108;DHT22;10712;52.944;9.098;2022-08-18T07:57:18;20.60;88.70
21108;DHT22;10712;52.944;9.098;2022-08-18T08:00:19;20.60;88.20
21108;DHT22;10712;52.944;9.098;2022-08-18T08:05:41;20.60;88.00
21108;DHT22;10712;52.944;9.098;2022-08-18T08:08:22;20.60;88.00
21108;DHT22;10712;52.944;9.098;2022-08-18T08:14:12;20.60;88.00
21108;DHT22;10712;52.944;9.098;2022-08-18T08:17:03;20.60;88.00
21108;DHT22;10712;52.944;9.098;2022-08-18T08:33:53;20.80;86.90
21108;DHT22;10712;52.944;9.098;2022-08-18T08:36:30;20.80;86.80
21108;DHT22;10712;52.944;9.098;2022-08-18T08:39:48;20.90;86.80
21108;DHT22;10712;52.944;9.098;2022-08-18T08:42:52;20.90;86.70
21108;DHT22;10712;52.944;9.098;2022-08-18T08:48:01;21.00;86.30
21108;DHT22;10712;52.944;9.098;2022-08-18T08:50:40;21.00;86.20
21108;DHT22;10712;52.944;9.098;2022-08-18T08:53:23;21.00;86.20
21108;DHT22;10712;52.944;9.098;2022-08-18T08:55:54;21.00;86.10
21108;DHT22;10712;52.944;9.098;2022-08-18T09:05:10;21.10;85.80
21108;DHT22;10712;52.944;9.098;2022-08-18T09:14:12;21.10;85.40
21108;DHT22;10712;52.944;9.098;2022-08-18T09:16:53;21.20;85.20
21108;DHT22;10712;52.944;9.098;2022-08-18T09:22:44;21.20;85.30
21108;DHT22;10712;52.944;9.098;2022-08-18T09:28:10;21.20;85.40
21108;DHT22;10712;52.944;9.098;2022-08-18T09:33:59;21.30;85.50
21108;DHT22;10712;52.944;9.098;2022-08-18T09:36:52;21.30;85.00
21108;DHT22;10712;52.944;9.098;2022-08-18T09:39:36;21.30;84.30
21108;DHT22;10712;52.944;9.098;2022-08-18T09:45:08;21.30;84.40
21108;DHT22;10712;52.944;9.098;2022-08-18T09:50:50;21.40;84.30
21108;DHT22;10712;52.944;9.098;2022-08-18T09:56:12;21.40;84.40
21108;DHT22;10712;52.944;9.098;2022-08-18T09:58:52;21.50;84.40
21108;DHT22;10712;52.944;9.098;2022-08-18T10:06:44;21.60;84.20
21108;DHT22;10712;52.944;9.098;2022-08-18T10:09:40;21.70;84.10
21108;DHT22;10712;52.944;9.098;2022-08-18T10:12:24;21.70;84.10
21108;DHT22;10712;52.944;9.098;2022-08-18T10:17:47;21.80;83.90
21108;DHT22;10712;52.944;9.098;2022-08-18T10:31:30;22.20;82.30
21108;DHT22;10712;52.944;9.098;2022-08-18T10:39:50;22.30;81.10
21108;DHT22;10712;52.944;9.098;2022-08-18T10:42:44;22.30;81.20
21108;DHT22;10712;52.944;9.098;2022-08-18T10:45:29;22.40;81.50
21108;DHT22;10712;52.944;9.098;2022-08-18T10:48:20;22.40;80.70
21108;DHT22;10712;52.944;9.098;2022-08-18T10:50:49;22.50;80.80
21108;DHT22;10712;52.944;9.098;2022-08-18T10:56:04;22.60;80.50
21108;DHT22;10712;52.944;9.098;2022-08-18T11:07:10;22.80;78.70
21108;DHT22;10712;52.944;9.098;2022-08-18T11:09:41;22.90;77.50
21108;DHT22;10712;52.944;9.098;2022-08-18T11:12:11;23.00;77.70
21108;DHT22;10712;52.944;9.098;2022-08-18T11:15:08;23.10;77.70
21108;DHT22;10712;52.944;9.098;2022-08-18T11:20:34;23.30;77.20
21108;DHT22;10712;52.944;9.098;2022-08-18T11:23:01;23.40;76.90
21108;DHT22;10712;52.944;9.098;2022-08-18T11:25:31;23.50;76.00
21108;DHT22;10712;52.944;9.098;2022-08-18T11:28:01;23.60;76.20
21108;DHT22;10712;52.944;9.098;2022-08-18T11:30:40;23.70;76.70
21108;DHT22;10712;52.944;9.098;2022-08-18T11:33:15;23.80;76.00
21108;DHT22;10712;52.944;9.098;2022-08-18T11:35:47;23.80;74.40
21108;DHT22;10712;52.944;9.098;2022-08-18T11:38:16;23.70;74.70
21108;DHT22;10712;52.944;9.098;2022-08-18T11:40:48;23.80;75.30
21108;DHT22;10712;52.944;9.098;2022-08-18T11:43:30;23.80;75.20
21108;DHT22;10712;52.944;9.098;2022-08-18T11:46:20;23.90;75.10
21108;DHT22;10712;52.944;9.098;2022-08-18T11:48:51;23.90;74.70
21108;DHT22;10712;52.944;9.098;2022-08-18T11:53:57;24.00;74.70
21108;DHT22;10712;52.944;9.098;2022-08-18T11:56:43;24.10;73.60
21108;DHT22;10712;52.944;9.098;2022-08-18T11:59:30;24.10;74.00
21108;DHT22;10712;52.944;9.098;2022-08-18T12:02:01;24.30;73.70
21108;DHT22;10712;52.944;9.098;2022-08-18T12:04:38;24.40;73.50
21108;DHT22;10712;52.944;9.098;2022-08-18T12:07:14;24.40;73.50
21108;DHT22;10712;52.944;9.098;2022-08-18T12:10:14;24.60;73.80
21108;DHT22;10712;52.944;9.098;2022-08-18T12:12:49;24.70;72.80
21108;DHT22;10712;52.944;9.098;2022-08-18T12:17:43;24.70;72.00
21108;DHT22;10712;52.944;9.098;2022-08-18T12:20:12;24.70;72.10
21108;DHT22;10712;52.944;9.098;2022-08-18T12:22:42;24.70;71.50
21108;DHT22;10712;52.944;9.098;2022-08-18T12:25:13;24.70;71.40
21108;DHT22;10712;52.944;9.098;2022-08-18T12:27:41;24.80;71.80
21108;DHT22;10712;52.944;9.098;2022-08-18T12:30:08;24.80;71.60
21108;DHT22;10712;52.944;9.098;2022-08-18T12:32:39;24.90;71.70
21108;DHT22;10712;52.944;9.098;2022-08-18T12:35:09;24.90;71.40
21108;DHT22;10712;52.944;9.098;2022-08-18T12:37:37;24.90;71.60
21108;DHT22;10712;52.944;9.098;2022-08-18T12:40:07;24.80;72.10
21108;DHT22;10712;52.944;9.098;2022-08-18T12:42:33;24.70;72.00
21108;DHT22;10712;52.944;9.098;2022-08-18T12:45:00;24.70;72.30
21108;DHT22;10712;52.944;9.098;2022-08-18T12:47:26;24.60;72.60
21108;DHT22;10712;52.944;9.098;2022-08-18T12:49:52;24.50;72.80
21108;DHT22;10712;52.944;9.098;2022-08-18T12:52:19;24.50;72.80
21108;DHT22;10712;52.944;9.098;2022-08-18T12:54:46;24.50;72.80
21108;DHT22;10712;52.944;9.098;2022-08-18T12:57:22;24.40;72.70
21108;DHT22;10712;52.944;9.098;2022-08-18T12:59:49;24.40;72.60
21108;DHT22;10712;52.944;9.098;2022-08-18T13:02:15;24.30;72.60
21108;DHT22;10712;52.944;9.098;2022-08-18T13:04:42;24.30;72.80
21108;DHT22;10712;52.944;9.098;2022-08-18T13:07:11;24.30;73.50
21108;DHT22;10712;52.944;9.098;2022-08-18T13:09:39;24.30;73.60
21108;DHT22;10712;52.944;9.098;2022-08-18T13:12:06;24.30;73.80
21108;DHT22;10712;52.944;9.098;2022-08-18T13:14:32;24.30;73.80
21108;DHT22;10712;52.944;9.098;2022-08-18T13:16:58;24.40;74.00
21108;DHT22;10712;52.944;9.098;2022-08-18T13:19:24;24.50;73.60
21108;DHT22;10712;52.944;9.098;2022-08-18T13:21:50;24.60;72.90
21108;DHT22;10712;52.944;9.098;2022-08-18T13:24:16;24.60;72.70
21108;DHT22;10712;52.944;9.098;2022-08-18T13:26:44;24.60;72.40
21108;DHT22;10712;52.944;9.098;2022-08-18T13:29:13;24.60;72.40
21108;DHT22;10712;52.944;9.098;2022-08-18T13:31:41;24.50;72.30
21108;DHT22;10712;52.944;9.098;2022-08-18T13:34:08;24.50;72.50
21108;DHT22;10712;52.944;9.098;2022-08-18T13:36:34;24.60;72.60
21108;DHT22;10712;52.944;9.098;2022-08-18T13:39:21;24.70;72.70
21108;DHT22;10712;52.944;9.098;2022-08-18T13:41:49;24.70;72.40
21108;DHT22;10712;52.944;9.098;2022-08-18T13:44:17;24.80;72.10
21108;DHT22;10712;52.944;9.098;2022-08-18T13:46:47;24.90;71.70
21108;DHT22;10712;52.944;9.098;2022-08-18T13:49:16;25.00;70.20
21108;DHT22;10712;52.944;9.098;2022-08-18T13:51:45;25.00;69.80
21108;DHT22;10712;52.944;9.098;2022-08-18T13:54:17;25.00;70.30
21108;DHT22;10712;52.944;9.098;2022-08-18T13:56:47;25.10;70.30
21108;DHT22;10712;52.944;9.098;2022-08-18T13:59:13;25.10;69.00
21108;DHT22;10712;52.944;9.098;2022-08-18T14:01:39;25.10;68.90
21108;DHT22;10712;52.944;9.098;2022-08-18T14:04:05;25.20;68.90
21108;DHT22;10712;52.944;9.098;2022-08-18T14:06:33;25.20;68.60
21108;DHT22;10712;52.944;9.098;2022-08-18T14:08:58;25.20;68.40
21108;DHT22;10712;52.944;9.098;2022-08-18T14:11:27;25.30;68.70
21108;DHT22;10712;52.944;9.098;2022-08-18T14:13:55;25.30;68.10
21108;DHT22;10712;52.944;9.098;2022-08-18T14:16:24;25.40;67.50
21108;DHT22;10712;52.944;9.098;2022-08-18T14:18:50;25.30;67.30
21108;DHT22;10712;52.944;9.098;2022-08-18T14:21:57;25.20;67.80
21108;DHT22;10712;52.944;9.098;2022-08-18T14:24:42;25.20;68.60
21108;DHT22;10712;52.944;9.098;2022-08-18T14:27:33;25.10;68.70
21108;DHT22;10712;52.944;9.098;2022-08-18T14:30:07;25.10;69.40
21108;DHT22;10712;52.944;9.098;2022-08-18T14:32:38;25.00;70.00
21108;DHT22;10712;52.944;9.098;2022-08-18T14:35:19;25.00;70.40
21108;DHT22;10712;52.944;9.098;2022-08-18T14:37:47;24.90;71.00
21108;DHT22;10712;52.944;9.098;2022-08-18T14:40:13;24.80;71.50
21108;DHT22;10712;52.944;9.098;2022-08-18T14:42:39;24.80;72.10
21108;DHT22;10712;52.944;9.098;2022-08-18T14:45:07;24.70;72.40
21108;DHT22;10712;52.944;9.098;2022-08-18T14:47:34;24.70;72.70
21108;DHT22;10712;52.944;9.098;2022-08-18T14:50:00;24.70;72.00
21108;DHT22;10712;52.944;9.098;2022-08-18T14:52:26;24.70;72.30
21108;DHT22;10712;52.944;9.098;2022-08-18T14:54:53;24.80;72.70
21108;DHT22;10712;52.944;9.098;2022-08-18T14:57:19;24.90;71.90
21108;DHT22;10712;52.944;9.098;2022-08-18T14:59:48;24.90;70.70
21108;DHT22;10712;52.944;9.098;2022-08-18T15:02:14;24.80;71.00
21108;DHT22;10712;52.944;9.098;2022-08-18T15:04:41;24.70;71.20
21108;DHT22;10712;52.944;9.098;2022-08-18T15:07:07;24.60;71.30
21108;DHT22;10712;52.944;9.098;2022-08-18T15:09:33;24.50;71.80
21108;DHT22;10712;52.944;9.098;2022-08-18T15:11:59;24.50;72.20
21108;DHT22;10712;52.944;9.098;2022-08-18T15:14:29;24.50;71.90
21108;DHT22;10712;52.944;9.098;2022-08-18T15:16:58;24.40;71.80
21108;DHT22;10712;52.944;9.098;2022-08-18T15:19:24;24.40;71.60
21108;DHT22;10712;52.944;9.098;2022-08-18T15:21:50;24.30;72.20
21108;DHT22;10712;52.944;9.098;2022-08-18T15:24:38;24.30;72.70
21108;DHT22;10712;52.944;9.098;2022-08-18T15:27:30;24.20;72.60
21108;DHT22;10712;52.944;9.098;2022-08-18T15:30:01;24.10;72.80
21108;DHT22;10712;52.944;9.098;2022-08-18T15:32:29;24.10;72.70
21108;DHT22;10712;52.944;9.098;2022-08-18T15:35:04;24.00;72.90
21108;DHT22;10712;52.944;9.098;2022-08-18T15:37:34;24.00;73.10
21108;DHT22;10712;52.944;9.098;2022-08-18T15:42:47;24.00;73.50
21108;DHT22;10712;52.944;9.098;2022-08-18T15:45:20;24.10;73.40
21108;DHT22;10712;52.944;9.098;2022-08-18T15:47:51;24.20;72.90
21108;DHT22;10712;52.944;9.098;2022-08-18T15:50:18;24.20;72.80
21108;DHT22;10712;52.944;9.098;2022-08-18T15:52:56;24.30;72.60
21108;DHT22;10712;52.944;9.098;2022-08-18T15:55:25;24.30;72.00
21108;DHT22;10712;52.944;9.098;2022-08-18T15:57:53;24.30;72.10
21108;DHT22;10712;52.944;9.098;2022-08-18T16:00:22;24.30;71.80
21108;DHT22;10712;52.944;9.098;2022-08-18T16:02:52;24.30;71.40
21108;DHT22;10712;52.944;9.098;2022-08-18T16:05:24;24.20;71.80
21108;DHT22;10712;52.944;9.098;2022-08-18T16:07:53;24.20;72.20
21108;DHT22;10712;52.944;9.098;2022-08-18T16:10:22;24.10;72.40
21108;DHT22;10712;52.944;9.098;2022-08-18T16:12:50;24.10;72.00
21108;DHT22;10712;52.944;9.098;2022-08-18T16:15:19;24.00;71.70
21108;DHT22;10712;52.944;9.098;2022-08-18T16:17:47;24.00;72.10
21108;DHT22;10712;52.944;9.098;2022-08-18T16:20:14;24.00;72.30
21108;DHT22;10712;52.944;9.098;2022-08-18T16:22:44;24.10;72.70
21108;DHT22;10712;52.944;9.098;2022-08-18T16:25:11;24.10;72.50
21108;DHT22;10712;52.944;9.098;2022-08-18T16:27:38;24.10;72.60
21108;DHT22;10712;52.944;9.098;2022-08-18T16:30:21;24.20;71.80
21108;DHT22;10712;52.944;9.098;2022-08-18T16:32:49;24.20;71.30
21108;DHT22;10712;52.944;9.098;2022-08-18T16:35:17;24.20;71.90
21108;DHT22;10712;52.944;9.098;2022-08-18T16:37:47;24.20;72.30
21108;DHT22;10712;52.944;9.098;2022-08-18T16:40:15;24.20;72.30
21108;DHT22;10712;52.944;9.098;2022-08-18T16:42:43;24.10;72.20
21108;DHT22;10712;52.944;9.098;2022-08-18T16:45:10;24.10;71.50
21108;DHT22;10712;52.944;9.098;2022-08-18T16:47:37;24.00;72.10
21108;DHT22;10712;52.944;9.098;2022-08-18T16:50:09;23.90;72.30
21108;DHT22;10712;52.944;9.098;2022-08-18T16:52:37;23.90;72.20
21108;DHT22;10712;52.944;9.098;2022-08-18T16:55:05;23.90;72.40
21108;DHT22;10712;52.944;9.098;2022-08-18T16:57:32;23.80;72.40
21108;DHT22;10712;52.944;9.098;2022-08-18T17:00:16;23.80;72.80
21108;DHT22;10712;52.944;9.098;2022-08-18T17:03:05;23.70;73.20
21108;DHT22;10712;52.944;9.098;2022-08-18T17:08:30;23.50;73.30
21108;DHT22;10712;52.944;9.098;2022-08-18T17:11:06;23.40;73.40
21108;DHT22;10712;52.944;9.098;2022-08-18T17:13:37;23.30;73.60
21108;DHT22;10712;52.944;9.098;2022-08-18T17:16:05;23.20;74.00
21108;DHT22;10712;52.944;9.098;2022-08-18T17:18:32;23.20;74.00
21108;DHT22;10712;52.944;9.098;2022-08-18T17:21:05;23.10;74.20
21108;DHT22;10712;52.944;9.098;2022-08-18T17:23:33;23.10;74.50
21108;DHT22;10712;52.944;9.098;2022-08-18T17:25:59;23.00;74.30
21108;DHT22;10712;52.944;9.098;2022-08-18T17:28:41;23.00;74.40
21108;DHT22;10712;52.944;9.098;2022-08-18T17:31:09;22.90;74.60
21108;DHT22;10712;52.944;9.098;2022-08-18T17:33:39;22.90;74.80
21108;DHT22;10712;52.944;9.098;2022-08-18T17:36:13;22.80;74.60
21108;DHT22;10712;52.944;9.098;2022-08-18T17:38:55;22.70;74.70
21108;DHT22;10712;52.944;9.098;2022-08-18T17:41:25;22.70;75.10
21108;DHT22;10712;52.944;9.098;2022-08-18T17:43:56;22.60;75.00
21108;DHT22;10712;52.944;9.098;2022-08-18T17:46:36;22.60;75.30
21108;DHT22;10712;52.944;9.098;2022-08-18T17:49:15;22.50;75.00
21108;DHT22;10712;52.944;9.098;2022-08-18T17:51:48;22.40;75.20
21108;DHT22;10712;52.944;9.098;2022-08-18T17:54:35;22.40;75.10
21108;DHT22;10712;52.944;9.098;2022-08-18T17:57:12;22.40;75.10
21108;DHT22;10712;52.944;9.098;2022-08-18T18:00:03;22.30;75.50
21108;DHT22;10712;52.944;9.098;2022-08-18T18:02:40;22.20;75.90
21108;DHT22;10712;52.944;9.098;2022-08-18T18:05:12;22.10;76.40
21108;DHT22;10712;52.944;9.098;2022-08-18T18:10:43;22.10;76.50
21108;DHT22;10712;52.944;9.098;2022-08-18T18:15:46;22.00;76.80
21108;DHT22;10712;52.944;9.098;2022-08-18T18:21:19;21.90;76.70
21108;DHT22;10712;52.944;9.098;2022-08-18T18:26:41;21.80;76.80
21108;DHT22;10712;52.944;9.098;2022-08-18T18:29:24;21.80;76.80
21108;DHT22;10712;52.944;9.098;2022-08-18T18:32:06;21.70;77.00
21108;DHT22;10712;52.944;9.098;2022-08-18T18:35:15;21.60;77.30
21108;DHT22;10712;52.944;9.098;2022-08-18T18:37:54;21.60;77.50
21108;DHT22;10712;52.944;9.098;2022-08-18T18:40:33;21.50;77.70
21108;DHT22;10712;52.944;9.098;2022-08-18T18:43:39;21.50;77.70
21108;DHT22;10712;52.944;9.098;2022-08-18T18:49:23;21.40;77.40
21108;DHT22;10712;52.944;9.098;2022-08-18T18:52:27;21.40;77.60
21108;DHT22;10712;52.944;9.098;2022-08-18T18:55:23;21.30;78.00
21108;DHT22;10712;52.944;9.098;2022-08-18T18:58:11;21.30;78.40
21108;DHT22;10712;52.944;9.098;2022-08-18T19:00:59;21.20;78.80